sensor_id;sensor_type;location;lat;lon;timestamp;temperature;humidity
80212;DHT22;70434;37.956;23.722;2023-07-16T00:01:04;34.10;29.70
80212;DHT22;70434;37.956;23.722;2023-07-16T00:03:30;34.10;29.80
80212;DHT22;70434;37.956;23.722;2023-07-16T00:05:56;34.00;29.80
80212;DHT22;70434;37.956;23.722;2023-07-16T00:08:22;34.00;29.90
80212;DHT22;70434;37.956;23.722;2023-07-16T00:10:48;34.10;29.80
80212;DHT22;70434;37.956;23.722;2023-07-16T00:13:13;34.20;29.70
80212;DHT22;70434;37.956;23.722;2023-07-16T00:15:39;34.10;29.80
80212;DHT22;70434;37.956;23.722;2023-07-16T00:18:05;34.10;29.90
80212;DHT22;70434;37.956;23.722;2023-07-16T00:20:32;34.10;29.80
80212;DHT22;70434;37.956;23.722;2023-07-16T00:22:58;34.20;29.80
80212;DHT22;70434;37.956;23.722;2023-07-16T00:25:24;34.20;29.80
80212;DHT22;70434;37.956;23.722;2023-07-16T00:27:49;34.20;29.80
80212;DHT22;70434;37.956;23.722;2023-07-16T00:30:15;34.30;29.70
80212;DHT22;70434;37.956;23.722;2023-07-16T00:32:41;34.20;29.70
80212;DHT22;70434;37.956;23.722;2023-07-16T00:35:07;34.20;29.80
80212;DHT22;70434;37.956;23.722;2023-07-16T00:37:34;34.20;29.80
80212;DHT22;70434;37.956;23.722;2023-07-16T00:39:59;34.20;29.90
80212;DHT22;70434;37.956;23.722;2023-07-16T00:42:25;34.10;30.00
80212;DHT22;70434;37.956;23.722;2023-07-16T00:44:51;34.10;30.00
80212;DHT22;70434;37.956;23.722;2023-07-16T00:47:17;34.00;30.10
80212;DHT22;70434;37.956;23.722;2023-07-16T00:49:42;34.10;30.10
80212;DHT22;70434;37.956;23.722;2023-07-16T00:52:11;34.00;30.20
80212;DHT22;70434;37.956;23.722;2023-07-16T00:54:39;34.00;30.10
80212;DHT22;70434;37.956;23.722;2023-07-16T00:57:06;34.00;30.20
80212;DHT22;70434;37.956;23.722;2023-07-16T00:59:32;33.90;30.10
80212;DHT22;70434;37.956;23.722;2023-07-16T01:01:58;34.00;30.00
80212;DHT22;70434;37.956;23.722;2023-07-16T01:04:23;34.10;29.90
80212;DHT22;70434;37.956;23.722;2023-07-16T01:06:53;34.00;29.90
80212;DHT22;70434;37.956;23.722;2023-07-16T01:09:22;34.00;30.10
80212;DHT22;70434;37.956;23.722;2023-07-16T01:11:48;33.90;30.10
80212;DHT22;70434;37.956;23.722;2023-07-16T01:14:17;34.00;30.00
80212;DHT22;70434;37.956;23.722;2023-07-16T01:16:43;34.00;30.00
80212;DHT22;70434;37.956;23.722;2023-07-16T01:19:09;33.90;30.00
80212;DHT22;70434;37.956;23.722;2023-07-16T01:22:00;33.90;30.00
80212;DHT22;70434;37.956;23.722;2023-07-16T01:30:55;33.90;30.00
80212;DHT22;70434;37.956;23.722;2023-07-16T01:33:24;33.90;30.00
80212;DHT22;70434;37.956;23.722;2023-07-16T01:35:50;33.90;30.00
80212;DHT22;70434;37.956;23.722;2023-07-16T01:38:16;33.80;30.00
80212;DHT22;70434;37.956;23.722;2023-07-16T01:40:44;33.80;30.10
80212;DHT22;70434;37.956;23.722;2023-07-16T01:43:10;33.80;30.20
80212;DHT22;70434;37.956;23.722;2023-07-16T01:45:35;33.70;30.20
80212;DHT22;70434;37.956;23.722;2023-07-16T01:48:30;33.70;30.40
80212;DHT22;70434;37.956;23.722;2023-07-16T01:50:56;33.70;30.50
80212;DHT22;70434;37.956;23.722;2023-07-16T01:53:22;33.70;30.50
80212;DHT22;70434;37.956;23.722;2023-07-16T01:55:48;33.80;30.60
80212;DHT22;70434;37.956;23.722;2023-07-16T01:58:14;33.80;30.70
80212;DHT22;70434;37.956;23.722;2023-07-16T02:00:39;33.70;30.90
80212;DHT22;70434;37.956;23.722;2023-07-16T02:03:05;33.70;30.90
80212;DHT22;70434;37.956;23.722;2023-07-16T02:05:31;33.70;30.80
80212;DHT22;70434;37.956;23.722;2023-07-16T02:07:57;33.70;30.90
80212;DHT22;70434;37.956;23.722;2023-07-16T02:10:23;33.70;31.00
80212;DHT22;70434;37.956;23.722;2023-07-16T02:12:49;33.70;31.00
80212;DHT22;70434;37.956;23.722;2023-07-16T02:15:14;33.70;31.00
80212;DHT22;70434;37.956;23.722;2023-07-16T02:17:41;33.60;31.10
80212;DHT22;70434;37.956;23.722;2023-07-16T02:20:07;33.60;31.10
80212;DHT22;70434;37.956;23.722;2023-07-16T02:22:34;33.50;31.10
80212;DHT22;70434;37.956;23.722;2023-07-16T02:25:01;33.60;31.20
80212;DHT22;70434;37.956;23.722;2023-07-16T02:27:27;33.50;31.00
80212;DHT22;70434;37.956;23.722;2023-07-16T02:29:53;33.50;31.20
80212;DHT22;70434;37.956;23.722;2023-07-16T02:32:21;33.50;31.30
80212;DHT22;70434;37.956;23.722;2023-07-16T02:34:47;33.50;31.20
80212;DHT22;70434;37.956;23.722;2023-07-16T02:37:13;33.40;31.30
80212;DHT22;70434;37.956;23.722;2023-07-16T02:39:39;33.40;31.40
80212;DHT22;70434;37.956;23.722;2023-07-16T02:42:05;33.40;31.20
80212;DHT22;70434;37.956;23.722;2023-07-16T02:44:30;33.50;31.30
80212;DHT22;70434;37.956;23.722;2023-07-16T02:46:56;33.40;31.20
80212;DHT22;70434;37.956;23.722;2023-07-16T02:49:22;33.50;31.10
80212;DHT22;70434;37.956;23.722;2023-07-16T02:51:47;33.50;31.20
80212;DHT22;70434;37.956;23.722;2023-07-16T02:54:13;33.40;31.20
80212;DHT22;70434;37.956;23.722;2023-07-16T02:56:39;33.40;31.20
80212;DHT22;70434;37.956;23.722;2023-07-16T02:59:05;33.40;31.50
80212;DHT22;70434;37.956;23.722;2023-07-16T03:01:30;33.30;31.40
80212;DHT22;70434;37.956;23.722;2023-07-16T03:03:56;33.30;31.60
80212;DHT22;70434;37.956;23.722;2023-07-16T03:06:22;33.30;31.80
80212;DHT22;70434;37.956;23.722;2023-07-16T03:08:48;33.20;31.90
80212;DHT22;70434;37.956;23.722;2023-07-16T03:11:14;33.20;31.80
80212;DHT22;70434;37.956;23.722;2023-07-16T03:13:39;33.10;31.90
80212;DHT22;70434;37.956;23.722;2023-07-16T03:16:05;33.10;31.90
80212;DHT22;70434;37.956;23.722;2023-07-16T03:18:31;33.10;31.80
80212;DHT22;70434;37.956;23.722;2023-07-16T03:20:57;33.10;31.70
80212;DHT22;70434;37.956;23.722;2023-07-16T03:23:24;33.20;31.70
80212;DHT22;70434;37.956;23.722;2023-07-16T03:25:51;33.20;31.70
80212;DHT22;70434;37.956;23.722;2023-07-16T03:28:17;33.20;31.70
80212;DHT22;70434;37.956;23.722;2023-07-16T03:30:50;33.20;31.80
80212;DHT22;70434;37.956;23.722;2023-07-16T03:33:16;33.20;32.00
80212;DHT22;70434;37.956;23.722;2023-07-16T03:35:46;33.10;32.20
80212;DHT22;70434;37.956;23.722;2023-07-16T03:38:13;33.10;32.20
80212;DHT22;70434;37.956;23.722;2023-07-16T03:40:39;33.00;32.30
80212;DHT22;70434;37.956;23.722;2023-07-16T03:43:05;33.00;32.60
80212;DHT22;70434;37.956;23.722;2023-07-16T03:45:31;33.00;32.60
80212;DHT22;70434;37.956;23.722;2023-07-16T03:47:56;33.00;32.80
80212;DHT22;70434;37.956;23.722;2023-07-16T03:50:22;33.00;32.20
80212;DHT22;70434;37.956;23.722;2023-07-16T03:52:48;33.00;32.40
80212;DHT22;70434;37.956;23.722;2023-07-16T03:55:15;33.00;32.40
80212;DHT22;70434;37.956;23.722;2023-07-16T03:57:41;33.00;32.60
80212;DHT22;70434;37.956;23.722;2023-07-16T04:00:07;33.00;32.50
80212;DHT22;70434;37.956;23.722;2023-07-16T04:02:36;32.90;32.70
80212;DHT22;70434;37.956;23.722;2023-07-16T04:05:02;32.90;32.70
80212;DHT22;70434;37.956;23.722;2023-07-16T04:07:28;32.80;32.80
80212;DHT22;70434;37.956;23.722;2023-07-16T04:09:54;32.80;32.60
80212;DHT22;70434;37.956;23.722;2023-07-16T04:12:20;32.80;32.80
80212;DHT22;70434;37.956;23.722;2023-07-16T04:14:46;32.70;33.00
80212;DHT22;70434;37.956;23.722;2023-07-16T04:17:12;32.70;33.00
80212;DHT22;70434;37.956;23.722;2023-07-16T04:19:40;32.70;33.10
80212;DHT22;70434;37.956;23.722;2023-07-16T04:22:06;32.70;32.70
80212;DHT22;70434;37.956;23.722;2023-07-16T04:24:32;32.80;32.80
80212;DHT22;70434;37.956;23.722;2023-07-16T04:26:59;32.80;32.70
80212;DHT22;70434;37.956;23.722;2023-07-16T04:29:25;32.90;32.60
80212;DHT22;70434;37.956;23.722;2023-07-16T04:31:50;33.00;32.20
80212;DHT22;70434;37.956;23.722;2023-07-16T04:34:16;33.00;32.20
80212;DHT22;70434;37.956;23.722;2023-07-16T04:36:42;33.00;32.10
80212;DHT22;70434;37.956;23.722;2023-07-16T04:39:08;33.00;31.80
80212;DHT22;70434;37.956;23.722;2023-07-16T04:41:34;33.00;31.70
80212;DHT22;70434;37.956;23.722;2023-07-16T04:44:00;33.00;31.60
80212;DHT22;70434;37.956;23.722;2023-07-16T04:46:25;32.90;31.50
80212;DHT22;70434;37.956;23.722;2023-07-16T04:48:51;33.00;31.20
80212;DHT22;70434;37.956;23.722;2023-07-16T04:51:19;33.00;31.10
80212;DHT22;70434;37.956;23.722;2023-07-16T04:53:45;33.00;31.00
80212;DHT22;70434;37.956;23.722;2023-07-16T04:56:14;33.00;30.80
80212;DHT22;70434;37.956;23.722;2023-07-16T04:58:40;33.10;30.50
80212;DHT22;70434;37.956;23.722;2023-07-16T05:01:07;33.20;30.40
80212;DHT22;70434;37.956;23.722;2023-07-16T05:03:33;33.20;30.50
80212;DHT22;70434;37.956;23.722;2023-07-16T05:05:59;33.20;30.20
80212;DHT22;70434;37.956;23.722;2023-07-16T05:08:24;33.20;30.30
80212;DHT22;70434;37.956;23.722;2023-07-16T05:10:50;33.10;30.40
80212;DHT22;70434;37.956;23.722;2023-07-16T05:13:16;33.20;30.40
80212;DHT22;70434;37.956;23.722;2023-07-16T05:15:44;33.20;30.30
80212;DHT22;70434;37.956;23.722;2023-07-16T05:18:09;33.30;30.20
80212;DHT22;70434;37.956;23.722;2023-07-16T05:20:35;33.20;29.90
80212;DHT22;70434;37.956;23.722;2023-07-16T05:23:01;33.10;30.00
80212;DHT22;70434;37.956;23.722;2023-07-16T05:25:27;33.20;29.80
80212;DHT22;70434;37.956;23.722;2023-07-16T05:27:53;33.30;29.50
80212;DHT22;70434;37.956;23.722;2023-07-16T05:30:18;33.30;29.50
80212;DHT22;70434;37.956;23.722;2023-07-16T05:32:44;33.20;29.40
80212;DHT22;70434;37.956;23.722;2023-07-16T05:35:10;33.30;29.60
80212;DHT22;70434;37.956;23.722;2023-07-16T05:37:36;33.30;29.50
80212;DHT22;70434;37.956;23.722;2023-07-16T05:40:02;33.30;29.30
80212;DHT22;70434;37.956;23.722;2023-07-16T05:42:31;33.30;29.30
80212;DHT22;70434;37.956;23.722;2023-07-16T05:44:56;33.40;29.10
80212;DHT22;70434;37.956;23.722;2023-07-16T05:47:22;33.40;29.10
80212;DHT22;70434;37.956;23.722;2023-07-16T05:49:48;33.40;29.00
80212;DHT22;70434;37.956;23.722;2023-07-16T05:52:14;33.50;28.90
80212;DHT22;70434;37.956;23.722;2023-07-16T05:54:39;33.60;28.90
80212;DHT22;70434;37.956;23.722;2023-07-16T05:57:05;33.70;29.00
80212;DHT22;70434;37.956;23.722;2023-07-16T05:59:31;33.70;28.90
80212;DHT22;70434;37.956;23.722;2023-07-16T06:02:05;33.70;28.70
80212;DHT22;70434;37.956;23.722;2023-07-16T06:04:31;33.80;29.40
80212;DHT22;70434;37.956;23.722;2023-07-16T06:06:57;33.70;29.30
80212;DHT22;70434;37.956;23.722;2023-07-16T06:09:23;33.60;28.60
80212;DHT22;70434;37.956;23.722;2023-07-16T06:11:49;33.60;28.60
80212;DHT22;70434;37.956;23.722;2023-07-16T06:14:15;33.60;28.20
80212;DHT22;70434;37.956;23.722;2023-07-16T06:16:40;33.70;28.20
80212;DHT22;70434;37.956;23.722;2023-07-16T06:19:06;33.80;28.10
80212;DHT22;70434;37.956;23.722;2023-07-16T06:21:32;33.90;28.30
80212;DHT22;70434;37.956;23.722;2023-07-16T06:24:00;33.90;28.00
80212;DHT22;70434;37.956;23.722;2023-07-16T06:26:25;34.00;27.90
80212;DHT22;70434;37.956;23.722;2023-07-16T06:28:51;34.00;28.00
80212;DHT22;70434;37.956;23.722;2023-07-16T06:31:17;33.90;28.10
80212;DHT22;70434;37.956;23.722;2023-07-16T06:33:43;33.90;28.10
80212;DHT22;70434;37.956;23.722;2023-07-16T06:36:12;33.90;28.30
80212;DHT22;70434;37.956;23.722;2023-07-16T06:38:38;34.00;28.40
80212;DHT22;70434;37.956;23.722;2023-07-16T06:41:03;34.00;28.40
80212;DHT22;70434;37.956;23.722;2023-07-16T06:43:29;34.10;28.40
80212;DHT22;70434;37.956;23.722;2023-07-16T06:45:55;34.10;28.40
80212;DHT22;70434;37.956;23.722;2023-07-16T06:48:20;34.10;28.50
80212;DHT22;70434;37.956;23.722;2023-07-16T06:50:46;34.10;28.40
80212;DHT22;70434;37.956;23.722;2023-07-16T06:53:12;34.00;28.70
80212;DHT22;70434;37.956;23.722;2023-07-16T06:55:38;34.00;28.80
80212;DHT22;70434;37.956;23.722;2023-07-16T06:58:04;34.00;29.00
80212;DHT22;70434;37.956;23.722;2023-07-16T07:00:29;33.90;29.20
80212;DHT22;70434;37.956;23.722;2023-07-16T07:02:56;34.00;29.10
80212;DHT22;70434;37.956;23.722;2023-07-16T07:05:22;34.20;29.20
80212;DHT22;70434;37.956;23.722;2023-07-16T07:07:47;34.10;29.10
80212;DHT22;70434;37.956;23.722;2023-07-16T07:10:13;34.20;29.00
80212;DHT22;70434;37.956;23.722;2023-07-16T07:12:39;34.20;29.30
80212;DHT22;70434;37.956;23.722;2023-07-16T07:15:09;34.20;29.10
80212;DHT22;70434;37.956;23.722;2023-07-16T07:17:35;34.20;29.20
80212;DHT22;70434;37.956;23.722;2023-07-16T07:20:01;34.10;29.30
80212;DHT22;70434;37.956;23.722;2023-07-16T07:22:27;34.20;29.20
80212;DHT22;70434;37.956;23.722;2023-07-16T07:24:53;34.30;29.10
80212;DHT22;70434;37.956;23.722;2023-07-16T07:27:19;34.30;28.90
80212;DHT22;70434;37.956;23.722;2023-07-16T07:29:44;34.40;28.90
80212;DHT22;70434;37.956;23.722;2023-07-16T07:32:12;34.50;29.00
80212;DHT22;70434;37.956;23.722;2023-07-16T07:34:38;34.50;28.80
80212;DHT22;70434;37.956;23.722;2023-07-16T07:37:05;34.50;28.80
80212;DHT22;70434;37.956;23.722;2023-07-16T07:39:30;34.40;28.70
80212;DHT22;70434;37.956;23.722;2023-07-16T07:41:56;34.50;29.00
80212;DHT22;70434;37.956;23.722;2023-07-16T07:44:22;34.40;29.00
80212;DHT22;70434;37.956;23.722;2023-07-16T07:46:48;34.40;29.10
80212;DHT22;70434;37.956;23.722;2023-07-16T07:49:13;34.60;28.90
80212;DHT22;70434;37.956;23.722;2023-07-16T07:51:39;34.70;28.40
80212;DHT22;70434;37.956;23.722;2023-07-16T07:54:05;34.80;28.30
80212;DHT22;70434;37.956;23.722;2023-07-16T07:56:31;34.80;28.20
80212;DHT22;70434;37.956;23.722;2023-07-16T07:58:56;34.80;28.30
80212;DHT22;70434;37.956;23.722;2023-07-16T08:01:22;34.80;28.30
80212;DHT22;70434;37.956;23.722;2023-07-16T08:03:48;34.90;28.20
80212;DHT22;70434;37.956;23.722;2023-07-16T08:06:13;34.90;28.20
80212;DHT22;70434;37.956;23.722;2023-07-16T08:08:39;34.90;28.10
80212;DHT22;70434;37.956;23.722;2023-07-16T08:11:05;34.90;28.10
80212;DHT22;70434;37.956;23.722;2023-07-16T08:13:31;34.90;28.20
80212;DHT22;70434;37.956;23.722;2023-07-16T08:15:57;34.80;28.10
80212;DHT22;70434;37.956;23.722;2023-07-16T08:18:23;34.80;28.20
80212;DHT22;70434;37.956;23.722;2023-07-16T08:20:48;34.80;28.20
80212;DHT22;70434;37.956;23.722;2023-07-16T08:23:14;34.80;28.30
80212;DHT22;70434;37.956;23.722;2023-07-16T08:25:40;34.80;28.50
80212;DHT22;70434;37.956;23.722;2023-07-16T08:28:06;34.90;28.60
80212;DHT22;70434;37.956;23.722;2023-07-16T08:30:32;34.90;28.70
80212;DHT22;70434;37.956;23.722;2023-07-16T08:32:59;34.90;28.20
80212;DHT22;70434;37.956;23.722;2023-07-16T08:35:24;35.00;28.50
80212;DHT22;70434;37.956;23.722;2023-07-16T08:37:50;35.20;28.40
80212;DHT22;70434;37.956;23.722;2023-07-16T08:40:16;35.30;28.40
80212;DHT22;70434;37.956;23.722;2023-07-16T08:42:44;35.20;28.50
80212;DHT22;70434;37.956;23.722;2023-07-16T08:45:12;35.20;28.50
80212;DHT22;70434;37.956;23.722;2023-07-16T08:47:38;35.20;28.70
80212;DHT22;70434;37.956;23.722;2023-07-16T08:50:04;35.20;28.60
80212;DHT22;70434;37.956;23.722;2023-07-16T08:52:30;35.10;28.40
80212;DHT22;70434;37.956;23.722;2023-07-16T08:54:56;35.10;28.70
80212;DHT22;70434;37.956;23.722;2023-07-16T08:57:22;35.10;28.40
80212;DHT22;70434;37.956;23.722;2023-07-16T08:59:49;35.10;28.60
80212;DHT22;70434;37.956;23.722;2023-07-16T09:02:18;35.10;28.60
80212;DHT22;70434;37.956;23.722;2023-07-16T09:04:48;35.20;28.50
80212;DHT22;70434;37.956;23.722;2023-07-16T09:07:14;35.40;28.10
80212;DHT22;70434;37.956;23.722;2023-07-16T09:09:41;35.50;27.90
80212;DHT22;70434;37.956;23.722;2023-07-16T09:12:11;35.50;28.20
80212;DHT22;70434;37.956;23.722;2023-07-16T09:14:36;35.60;27.70
80212;DHT22;70434;37.956;23.722;2023-07-16T09:17:02;35.50;28.10
80212;DHT22;70434;37.956;23.722;2023-07-16T09:19:32;35.50;28.00
80212;DHT22;70434;37.956;23.722;2023-07-16T09:21:58;35.50;28.30
80212;DHT22;70434;37.956;23.722;2023-07-16T09:24:23;35.40;28.20
80212;DHT22;70434;37.956;23.722;2023-07-16T09:26:53;35.60;27.80
80212;DHT22;70434;37.956;23.722;2023-07-16T09:29:21;35.70;28.30
80212;DHT22;70434;37.956;23.722;2023-07-16T09:31:56;35.70;27.70
80212;DHT22;70434;37.956;23.722;2023-07-16T09:34:22;35.70;28.40
80212;DHT22;70434;37.956;23.722;2023-07-16T09:36:48;35.70;27.30
80212;DHT22;70434;37.956;23.722;2023-07-16T09:39:17;35.70;27.50
80212;DHT22;70434;37.956;23.722;2023-07-16T09:41:48;35.70;27.80
80212;DHT22;70434;37.956;23.722;2023-07-16T09:44:15;35.70;27.50
80212;DHT22;70434;37.956;23.722;2023-07-16T09:46:42;35.70;27.20
80212;DHT22;70434;37.956;23.722;2023-07-16T09:49:08;35.70;27.20
80212;DHT22;70434;37.956;23.722;2023-07-16T09:51:38;35.80;27.00
80212;DHT22;70434;37.956;23.722;2023-07-16T09:54:05;35.80;27.00
80212;DHT22;70434;37.956;23.722;2023-07-16T09:56:41;35.90;27.00
80212;DHT22;70434;37.956;23.722;2023-07-16T09:59:13;36.00;27.10
80212;DHT22;70434;37.956;23.722;2023-07-16T10:01:40;35.90;27.10
80212;DHT22;70434;37.956;23.722;2023-07-16T10:04:17;35.80;27.20
80212;DHT22;70434;37.956;23.722;2023-07-16T10:06:59;35.80;27.40
80212;DHT22;70434;37.956;23.722;2023-07-16T10:09:39;35.80;27.20
80212;DHT22;70434;37.956;23.722;2023-07-16T10:12:14;35.80;27.30
80212;DHT22;70434;37.956;23.722;2023-07-16T10:14:44;35.90;27.40
80212;DHT22;70434;37.956;23.722;2023-07-16T10:17:21;36.00;26.70
80212;DHT22;70434;37.956;23.722;2023-07-16T10:19:47;36.10;26.70
80212;DHT22;70434;37.956;23.722;2023-07-16T10:22:13;36.20;26.50
80212;DHT22;70434;37.956;23.722;2023-07-16T10:24:39;36.20;26.40
80212;DHT22;70434;37.956;23.722;2023-07-16T10:27:05;36.20;26.50
80212;DHT22;70434;37.956;23.722;2023-07-16T10:29:31;36.20;26.50
80212;DHT22;70434;37.956;23.722;2023-07-16T10:31:58;36.20;26.90
80212;DHT22;70434;37.956;23.722;2023-07-16T10:34:24;36.10;27.70
80212;DHT22;70434;37.956;23.722;2023-07-16T10:36:51;36.20;26.90
80212;DHT22;70434;37.956;23.722;2023-07-16T10:39:17;36.20;26.60
80212;DHT22;70434;37.956;23.722;2023-07-16T10:41:43;36.20;26.60
80212;DHT22;70434;37.956;23.722;2023-07-16T10:44:09;36.20;26.60
80212;DHT22;70434;37.956;23.722;2023-07-16T10:46:36;36.20;26.60
80212;DHT22;70434;37.956;23.722;2023-07-16T10:49:02;36.40;26.40
80212;DHT22;70434;37.956;23.722;2023-07-16T10:51:28;36.40;26.40
80212;DHT22;70434;37.956;23.722;2023-07-16T10:53:57;36.40;26.30
80212;DHT22;70434;37.956;23.722;2023-07-16T10:56:24;36.50;26.40
80212;DHT22;70434;37.956;23.722;2023-07-16T10:58:49;36.60;26.20
80212;DHT22;70434;37.956;23.722;2023-07-16T11:01:15;36.60;26.40
80212;DHT22;70434;37.956;23.722;2023-07-16T11:03:41;36.50;25.90
80212;DHT22;70434;37.956;23.722;2023-07-16T11:06:10;36.60;25.80
80212;DHT22;70434;37.956;23.722;2023-07-16T11:08:43;36.60;25.80
80212;DHT22;70434;37.956;23.722;2023-07-16T11:11:10;36.60;25.60
80212;DHT22;70434;37.956;23.722;2023-07-16T11:13:35;36.70;25.60
80212;DHT22;70434;37.956;23.722;2023-07-16T11:16:08;36.70;25.60
80212;DHT22;70434;37.956;23.722;2023-07-16T11:18:34;36.70;25.80
80212;DHT22;70434;37.956;23.722;2023-07-16T11:21:00;36.60;25.80
80212;DHT22;70434;37.956;23.722;2023-07-16T11:23:25;36.60;26.00
80212;DHT22;70434;37.956;23.722;2023-07-16T11:25:52;36.70;25.90
80212;DHT22;70434;37.956;23.722;2023-07-16T11:28:18;36.80;25.80
80212;DHT22;70434;37.956;23.722;2023-07-16T11:30:44;36.80;26.20
80212;DHT22;70434;37.956;23.722;2023-07-16T11:33:12;36.80;25.70
80212;DHT22;70434;37.956;23.722;2023-07-16T11:35:39;36.80;25.90
80212;DHT22;70434;37.956;23.722;2023-07-16T11:38:05;36.90;25.60
80212;DHT22;70434;37.956;23.722;2023-07-16T11:40:34;36.90;25.50
80212;DHT22;70434;37.956;23.722;2023-07-16T11:43:10;37.00;25.70
80212;DHT22;70434;37.956;23.722;2023-07-16T11:45:37;37.00;25.60
80212;DHT22;70434;37.956;23.722;2023-07-16T11:48:03;37.00;25.60
80212;DHT22;70434;37.956;23.722;2023-07-16T11:50:30;37.00;25.60
80212;DHT22;70434;37.956;23.722;2023-07-16T11:53:00;37.00;25.80
80212;DHT22;70434;37.956;23.722;2023-07-16T11:55:26;37.00;25.90
80212;DHT22;70434;37.956;23.722;2023-07-16T11:57:52;37.20;25.40
80212;DHT22;70434;37.956;23.722;2023-07-16T12:00:18;37.20;25.40
80212;DHT22;70434;37.956;23.722;2023-07-16T12:02:44;37.30;25.40
80212;DHT22;70434;37.956;23.722;2023-07-16T12:05:20;37.30;25.60
80212;DHT22;70434;37.956;23.722;2023-07-16T12:07:48;37.40;25.20
80212;DHT22;70434;37.956;23.722;2023-07-16T12:10:14;37.50;25.00
80212;DHT22;70434;37.956;23.722;2023-07-16T12:12:40;37.60;24.70
80212;DHT22;70434;37.956;23.722;2023-07-16T12:15:07;37.60;24.80
80212;DHT22;70434;37.956;23.722;2023-07-16T12:17:33;37.60;25.10
80212;DHT22;70434;37.956;23.722;2023-07-16T12:19:59;37.60;25.00
80212;DHT22;70434;37.956;23.722;2023-07-16T12:22:25;37.50;25.40
80212;DHT22;70434;37.956;23.722;2023-07-16T12:24:51;37.60;25.10
80212;DHT22;70434;37.956;23.722;2023-07-16T12:27:18;37.60;25.00
80212;DHT22;70434;37.956;23.722;2023-07-16T12:29:46;37.60;25.10
80212;DHT22;70434;37.956;23.722;2023-07-16T12:32:13;37.70;24.90
80212;DHT22;70434;37.956;23.722;2023-07-16T12:34:39;37.80;24.80
80212;DHT22;70434;37.956;23.722;2023-07-16T12:37:05;37.80;24.70
80212;DHT22;70434;37.956;23.722;2023-07-16T12:39:30;37.80;24.50
80212;DHT22;70434;37.956;23.722;2023-07-16T12:41:56;37.80;24.50
80212;DHT22;70434;37.956;23.722;2023-07-16T12:44:22;37.80;24.70
80212;DHT22;70434;37.956;23.722;2023-07-16T12:46:48;37.90;24.70
80212;DHT22;70434;37.956;23.722;2023-07-16T12:49:13;38.10;24.50
80212;DHT22;70434;37.956;23.722;2023-07-16T12:51:39;38.10;24.70
80212;DHT22;70434;37.956;23.722;2023-07-16T12:54:05;38.10;24.80
80212;DHT22;70434;37.956;23.722;2023-07-16T12:56:31;38.30;24.60
80212;DHT22;70434;37.956;23.722;2023-07-16T12:58:58;38.40;24.20
80212;DHT22;70434;37.956;23.722;2023-07-16T13:01:23;38.40;24.30
80212;DHT22;70434;37.956;23.722;2023-07-16T13:03:50;38.60;24.00
80212;DHT22;70434;37.956;23.722;2023-07-16T13:06:16;38.70;23.80
80212;DHT22;70434;37.956;23.722;2023-07-16T13:08:42;38.60;23.90
80212;DHT22;70434;37.956;23.722;2023-07-16T13:11:08;38.60;23.80
80212;DHT22;70434;37.956;23.722;2023-07-16T13:13:33;38.50;23.90
80212;DHT22;70434;37.956;23.722;2023-07-16T13:16:00;38.30;24.40
80212;DHT22;70434;37.956;23.722;2023-07-16T13:18:26;38.20;24.30
80212;DHT22;70434;37.956;23.722;2023-07-16T13:20:52;38.30;24.30
80212;DHT22;70434;37.956;23.722;2023-07-16T13:23:18;38.30;24.30
80212;DHT22;70434;37.956;23.722;2023-07-16T13:25:43;38.30;24.40
80212;DHT22;70434;37.956;23.722;2023-07-16T13:28:09;38.40;24.20
80212;DHT22;70434;37.956;23.722;2023-07-16T13:30:35;38.50;23.80
80212;DHT22;70434;37.956;23.722;2023-07-16T13:33:01;38.60;24.00
80212;DHT22;70434;37.956;23.722;2023-07-16T13:35:27;38.60;23.70
80212;DHT22;70434;37.956;23.722;2023-07-16T13:37:53;38.60;23.90
80212;DHT22;70434;37.956;23.722;2023-07-16T13:40:19;38.60;23.50
80212;DHT22;70434;37.956;23.722;2023-07-16T13:42:47;38.70;23.40
80212;DHT22;70434;37.956;23.722;2023-07-16T13:45:13;38.70;23.60
80212;DHT22;70434;37.956;23.722;2023-07-16T13:47:39;38.80;23.40
80212;DHT22;70434;37.956;23.722;2023-07-16T13:50:05;38.90;23.40
80212;DHT22;70434;37.956;23.722;2023-07-16T13:52:30;39.00;23.30
80212;DHT22;70434;37.956;23.722;2023-07-16T13:54:56;39.00;23.30
80212;DHT22;70434;37.956;23.722;2023-07-16T13:57:22;39.10;23.30
80212;DHT22;70434;37.956;23.722;2023-07-16T13:59:48;39.20;23.10
80212;DHT22;70434;37.956;23.722;2023-07-16T14:02:13;39.00;23.10
80212;DHT22;70434;37.956;23.722;2023-07-16T14:04:39;39.00;23.10
80212;DHT22;70434;37.956;23.722;2023-07-16T14:07:05;39.20;22.90
80212;DHT22;70434;37.956;23.722;2023-07-16T14:09:30;39.30;23.00
80212;DHT22;70434;37.956;23.722;2023-07-16T14:11:56;39.30;23.10
80212;DHT22;70434;37.956;23.722;2023-07-16T14:14:22;39.20;23.20
80212;DHT22;70434;37.956;23.722;2023-07-16T14:16:48;39.20;23.10
80212;DHT22;70434;37.956;23.722;2023-07-16T14:19:14;39.20;23.20
80212;DHT22;70434;37.956;23.722;2023-07-16T14:21:40;39.40;22.70
80212;DHT22;70434;37.956;23.722;2023-07-16T14:24:06;39.50;22.70
80212;DHT22;70434;37.956;23.722;2023-07-16T14:26:32;39.50;22.80
80212;DHT22;70434;37.956;23.722;2023-07-16T14:28:59;39.50;22.70
80212;DHT22;70434;37.956;23.722;2023-07-16T14:31:25;39.60;22.50
80212;DHT22;70434;37.956;23.722;2023-07-16T14:33:51;39.60;22.50
80212;DHT22;70434;37.956;23.722;2023-07-16T14:36:17;39.50;22.60
80212;DHT22;70434;37.956;23.722;2023-07-16T14:38:43;39.40;22.80
80212;DHT22;70434;37.956;23.722;2023-07-16T14:41:09;39.40;23.10
80212;DHT22;70434;37.956;23.722;2023-07-16T14:43:35;39.30;23.30
80212;DHT22;70434;37.956;23.722;2023-07-16T14:46:00;39.30;23.10
80212;DHT22;70434;37.956;23.722;2023-07-16T14:48:28;39.30;22.90
80212;DHT22;70434;37.956;23.722;2023-07-16T14:50:54;39.30;22.70
80212;DHT22;70434;37.956;23.722;2023-07-16T14:53:21;39.50;22.50
80212;DHT22;70434;37.956;23.722;2023-07-16T14:55:50;39.50;22.40
80212;DHT22;70434;37.956;23.722;2023-07-16T14:58:20;39.60;22.80
80212;DHT22;70434;37.956;23.722;2023-07-16T15:00:48;39.70;22.70
80212;DHT22;70434;37.956;23.722;2023-07-16T15:03:14;39.70;22.70
80212;DHT22;70434;37.956;23.722;2023-07-16T15:05:40;39.70;22.40
80212;DHT22;70434;37.956;23.722;2023-07-16T15:08:06;39.80;22.50
80212;DHT22;70434;37.956;23.722;2023-07-16T15:10:32;39.70;22.50
80212;DHT22;70434;37.956;23.722;2023-07-16T15:12:58;39.80;22.50
80212;DHT22;70434;37.956;23.722;2023-07-16T15:15:25;39.80;22.50
80212;DHT22;70434;37.956;23.722;2023-07-16T15:17:51;39.70;22.70